Time;durP1;ratioP1;P1;durP2;ratioP2;P2;SDS_P1;SDS_P2;PMS_P1;PMS_P2;Temp;Humidity;BMP_temperature;BMP_pressure;BME280_temperature;BME280_humidity;BME280_pressure;Samples;Min_cycle;Max_cycle;Signal;HPM_P1;HPM_P2
2023/07/13 00:01:49;;;;;;;2.78;1.10;;;16.40;99.90;;;;;;5010877;28;20078;-94
2023/07/13 00:04:20;;;;;;;4.10;1.45;;;16.40;99.90;;;;;;5012396;28;20043;-94
2023/07/13 00:06:47;;;;;;;4.55;1.50;;;16.40;99.90;;;;;;5029149;28;20708;-96
2023/07/13 00:09:14;;;;;;;2.33;1.05;;;16.30;99.90;;;;;;5013467;28;20041;-95
2023/07/13 00:11:42;;;;;;;;;;;16.30;99.90;;;;;;4996105;28;20087;-95
2023/07/13 00:14:09;;;;;;;4.45;1.27;;;16.30;99.90;;;;;;5009846;28;19917;-96
2023/07/13 00:16:37;;;;;;;4.45;1.15;;;16.20;99.90;;;;;;5005176;28;20049;-95
2023/07/13 00:19:03;;;;;;;5.30;1.20;;;16.20;99.90;;;;;;5013848;28;20132;-96
2023/07/13 00:21:29;;;;;;;3.30;1.07;;;16.20;99.90;;;;;;5004461;28;20606;-93
2023/07/13 00:23:55;;;;;;;5.80;1.77;;;16.20;99.90;;;;;;5009202;28;20463;-94
2023/07/13 00:26:21;;;;;;;3.35;1.20;;;16.20;99.90;;;;;;5001065;28;20670;-95
2023/07/13 00:28:46;;;;;;;3.72;1.00;;;16.20;99.90;;;;;;4999249;28;20034;-95
2023/07/13 00:31:14;;;;;;;5.95;1.48;;;16.20;99.90;;;;;;4993138;28;20048;-95
2023/07/13 00:33:40;;;;;;;5.78;1.38;;;16.20;99.90;;;;;;5022596;28;20037;-95
2023/07/13 00:36:09;;;;;;;3.85;1.20;;;16.20;99.90;;;;;;5004362;28;20485;-95
2023/07/13 00:38:35;;;;;;;5.95;1.15;;;16.20;99.90;;;;;;5019923;28;20071;-95
2023/07/13 00:41:03;;;;;;;4.72;1.40;;;16.30;99.90;;;;;;4982966;28;20124;-95
2023/07/13 00:43:30;;;;;;;4.18;1.55;;;16.20;99.90;;;;;;4997211;28;20041;-95
2023/07/13 00:45:58;;;;;;;6.28;1.30;;;16.30;99.90;;;;;;5024283;28;20458;-95
2023/07/13 00:48:28;;;;;;;3.15;1.08;;;16.30;99.90;;;;;;5016240;28;20560;-95
2023/07/13 00:50:58;;;;;;;5.25;1.55;;;16.30;99.90;;;;;;5013787;28;20076;-96
2023/07/13 00:53:26;;;;;;;3.75;1.27;;;16.30;99.90;;;;;;5029230;28;20051;-95
2023/07/13 00:55:54;;;;;;;5.70;1.20;;;16.30;99.90;;;;;;4996200;28;20476;-95
2023/07/13 00:58:21;;;;;;;5.72;1.48;;;;;;;;;;5029562;28;20045;-95
2023/07/13 01:00:48;;;;;;;5.60;1.75;;;16.30;99.90;;;;;;5020618;28;20042;-95
2023/07/13 01:03:14;;;;;;;;;;;16.30;99.90;;;;;;5025093;28;20123;-95
2023/07/13 01:05:40;;;;;;;5.30;1.60;;;16.30;99.90;;;;;;5018046;28;19952;-95
2023/07/13 01:08:05;;;;;;;5.30;1.48;;;16.30;99.90;;;;;;5029046;28;20091;-94
2023/07/13 01:10:38;;;;;;;3.47;1.35;;;16.30;99.90;;;;;;5011147;28;20032;-95
2023/07/13 01:13:09;;;;;;;3.88;1.33;;;16.30;99.90;;;;;;5004217;28;20602;-94
2023/07/13 01:15:43;;;;;;;3.42;1.42;;;16.30;99.90;;;;;;5033924;28;20033;-95
2023/07/13 01:18:19;;;;;;;4.82;1.83;;;16.30;99.90;;;;;;5030266;28;21559;-95
2023/07/13 01:20:51;;;;;;;4.78;1.42;;;16.00;99.90;;;;;;5020720;28;20131;-95
2023/07/13 01:23:17;;;;;;;4.03;1.60;;;16.30;99.90;;;;;;5018925;28;20597;-94
2023/07/13 01:25:42;;;;;;;3.72;1.35;;;16.30;99.90;;;;;;5010976;28;20043;-95
2023/07/13 01:28:09;;;;;;;2.42;0.93;;;16.40;99.90;;;;;;5024674;28;20033;-95
2023/07/13 01:30:39;;;;;;;7.22;1.48;;;16.30;99.90;;;;;;5026034;28;20041;-95
2023/07/13 01:33:09;;;;;;;5.13;1.92;;;16.30;99.90;;;;;;5009010;28;20489;-95
2023/07/13 01:35:35;;;;;;;6.13;1.58;;;16.30;99.90;;;;;;5022271;28;20045;-95
2023/07/13 01:38:02;;;;;;;5.13;1.57;;;16.20;99.90;;;;;;5015231;28;20094;-94
2023/07/13 01:40:31;;;;;;;3.47;1.50;;;16.20;99.90;;;;;;5000688;28;20041;-95
2023/07/13 01:42:58;;;;;;;5.15;1.48;;;16.20;99.90;;;;;;5016959;28;20041;-96
2023/07/13 01:45:24;;;;;;;5.72;1.38;;;16.20;99.90;;;;;;5012545;28;20044;-95
2023/07/13 01:47:50;;;;;;;2.85;1.15;;;16.20;99.90;;;;;;5022542;28;20483;-95
2023/07/13 01:50:15;;;;;;;4.82;1.48;;;16.20;99.90;;;;;;5007166;28;20037;-95
2023/07/13 01:52:41;;;;;;;5.65;1.40;;;16.20;99.90;;;;;;5005774;28;20125;-95
2023/07/13 01:55:08;;;;;;;4.32;1.50;;;16.20;99.90;;;;;;5000658;28;20037;-94
2023/07/13 01:57:33;;;;;;;6.65;1.40;;;16.20;99.90;;;;;;4981489;28;20503;-95
2023/07/13 01:59:59;;;;;;;3.58;1.48;;;16.20;99.90;;;;;;5002121;28;20047;-94
2023/07/13 02:02:25;;;;;;;2.63;1.25;;;16.30;99.90;;;;;;4993503;28;20048;-95
2023/07/13 02:04:51;;;;;;;3.80;1.40;;;16.30;99.90;;;;;;4997654;28;20045;-96
2023/07/13 02:07:16;;;;;;;4.80;1.50;;;16.30;99.90;;;;;;5000341;28;20084;-94
2023/07/13 02:09:42;;;;;;;4.63;1.17;;;16.30;99.90;;;;;;5011175;28;20090;-96
2023/07/13 02:12:08;;;;;;;5.95;1.20;;;16.30;99.90;;;;;;4986139;28;20043;-96
2023/07/13 02:14:34;;;;;;;4.50;1.38;;;16.30;99.90;;;;;;4998319;28;20045;-95
2023/07/13 02:17:00;;;;;;;6.30;1.98;;;16.30;99.90;;;;;;4993167;28;20110;-96
2023/07/13 02:19:26;;;;;;;3.75;1.42;;;16.30;99.90;;;;;;5014854;28;20038;-96
2023/07/13 02:21:52;;;;;;;5.15;1.70;;;16.30;99.90;;;;;;5002665;28;20038;-96
2023/07/13 02:24:19;;;;;;;5.00;1.10;;;16.30;99.90;;;;;;4995227;28;20454;-96
2023/07/13 02:26:45;;;;;;;5.95;1.48;;;16.30;99.90;;;;;;5002002;28;20642;-96
2023/07/13 02:29:11;;;;;;;4.35;1.27;;;16.30;99.90;;;;;;4991775;28;20122;-96
2023/07/13 02:31:37;;;;;;;4.63;1.15;;;16.30;99.90;;;;;;5008812;28;20041;-96
2023/07/13 02:34:03;;;;;;;3.35;1.20;;;16.20;99.90;;;;;;5008909;28;20128;-96
2023/07/13 02:36:30;;;;;;;4.38;1.10;;;16.20;99.90;;;;;;5023059;28;20044;-96
2023/07/13 02:38:56;;;;;;;4.63;1.42;;;16.20;99.90;;;;;;5019971;28;20040;-96
2023/07/13 02:41:22;;;;;;;3.65;1.20;;;16.20;99.90;;;;;;5014260;28;20046;-96
2023/07/13 02:43:48;;;;;;;4.90;1.50;;;16.20;99.90;;;;;;5019284;28;20124;-96
2023/07/13 02:46:14;;;;;;;3.72;1.10;;;16.20;99.90;;;;;;5004829;28;20176;-96
2023/07/13 02:48:40;;;;;;;6.75;1.10;;;16.20;99.90;;;;;;5006365;28;20431;-96
2023/07/13 02:51:07;;;;;;;4.00;1.45;;;16.10;99.90;;;;;;5007792;28;20037;-96
2023/07/13 02:53:33;;;;;;;4.63;1.27;;;16.10;99.90;;;;;;5031344;28;20128;-96
2023/07/13 02:55:59;;;;;;;6.55;1.73;;;16.10;99.90;;;;;;5033319;28;20064;-96
2023/07/13 02:58:25;;;;;;;5.15;1.67;;;16.10;99.90;;;;;;5023574;28;20527;-96
2023/07/13 03:00:51;;;;;;;6.68;1.65;;;16.10;99.90;;;;;;5013237;28;20127;-96
2023/07/13 03:03:17;;;;;;;5.75;1.95;;;16.00;99.90;;;;;;5018381;28;20036;-96
2023/07/13 03:05:45;;;;;;;3.53;1.35;;;16.00;99.90;;;;;;5019149;28;20036;-96
2023/07/13 03:08:11;;;;;;;;;;;16.00;99.90;;;;;;5035053;28;20037;-96
2023/07/13 03:10:39;;;;;;;4.85;1.80;;;15.90;99.90;;;;;;5030475;28;19917;-95
2023/07/13 03:13:05;;;;;;;4.75;1.63;;;15.90;99.90;;;;;;5013437;28;20136;-96
2023/07/13 03:15:31;;;;;;;6.65;1.90;;;15.80;99.90;;;;;;5016157;28;20041;-96
2023/07/13 03:17:57;;;;;;;5.63;1.90;;;15.90;99.90;;;;;;5014224;28;20051;-96
2023/07/13 03:20:23;;;;;;;5.35;1.63;;;15.80;99.90;;;;;;5033086;28;20083;-96
2023/07/13 03:22:48;;;;;;;7.45;2.80;;;15.80;99.90;;;;;;5033087;28;20044;-96
2023/07/13 03:25:14;;;;;;;6.03;2.10;;;15.80;99.90;;;;;;5018789;28;20119;-96
2023/07/13 03:27:40;;;;;;;6.53;2.22;;;15.70;99.90;;;;;;5031797;28;20037;-96
2023/07/13 03:30:07;;;;;;;8.05;2.10;;;15.70;99.90;;;;;;5004582;28;20029;-96
2023/07/13 03:32:33;;;;;;;8.63;2.15;;;15.70;99.90;;;;;;4995863;28;20095;-96
2023/07/13 03:34:58;;;;;;;4.60;1.60;;;15.70;99.90;;;;;;5014168;28;20494;-96
2023/07/13 03:37:24;;;;;;;5.63;1.75;;;15.70;99.90;;;;;;4998335;28;20041;-96
2023/07/13 03:39:50;;;;;;;6.50;1.98;;;15.70;99.90;;;;;;5025653;28;20040;-96
2023/07/13 03:42:16;;;;;;;7.38;2.03;;;15.70;99.90;;;;;;5018375;28;20102;-96
2023/07/13 03:44:45;;;;;;;7.93;1.90;;;15.70;99.90;;;;;;5018356;28;20044;-96
2023/07/13 03:47:12;;;;;;;5.95;2.03;;;15.70;99.90;;;;;;5017114;28;20040;-96
2023/07/13 03:49:37;;;;;;;6.05;1.98;;;15.70;99.90;;;;;;5021219;28;20029;-96
2023/07/13 03:52:04;;;;;;;4.75;2.35;;;15.70;99.90;;;;;;5022118;28;20045;-96
2023/07/13 03:54:29;;;;;;;6.65;1.50;;;15.80;99.90;;;;;;5037835;28;20111;-96
2023/07/13 03:56:55;;;;;;;8.75;2.08;;;15.80;99.90;;;;;;5021391;28;20080;-96
2023/07/13 03:59:21;;;;;;;6.35;1.88;;;15.80;99.90;;;;;;4988775;28;20132;-96
2023/07/13 04:01:47;;;;;;;7.90;2.03;;;15.80;99.90;;;;;;5029993;28;20414;-96
2023/07/13 04:04:13;;;;;;;5.45;1.73;;;15.90;99.90;;;;;;5034838;28;20120;-96
2023/07/13 04:06:39;;;;;;;5.80;1.83;;;15.90;99.90;;;;;;4998959;28;20079;-96
2023/07/13 04:09:05;;;;;;;6.50;1.95;;;15.90;99.90;;;;;;4998661;28;20068;-96
2023/07/13 04:11:32;;;;;;;5.47;1.80;;;15.90;99.90;;;;;;5017501;28;20036;-96
2023/07/13 04:13:58;;;;;;;;;;;16.00;99.90;;;;;;5018297;28;20495;-96
2023/07/13 04:16:27;;;;;;;7.50;2.00;;;15.90;99.90;;;;;;5024970;28;19930;-96
2023/07/13 04:18:54;;;;;;;4.15;1.90;;;16.20;99.90;;;;;;5014547;28;20066;-96
2023/07/13 04:21:21;;;;;;;6.53;2.05;;;16.00;99.90;;;;;;5029458;28;20480;-96
2023/07/13 04:23:47;;;;;;;6.27;1.80;;;16.00;99.90;;;;;;5033440;28;20129;-96
2023/07/13 04:26:12;;;;;;;7.90;2.42;;;15.80;99.90;;;;;;4995129;28;20072;-96
2023/07/13 04:28:38;;;;;;;4.57;2.00;;;16.10;99.90;;;;;;5018416;28;20041;-96
2023/07/13 04:31:04;;;;;;;4.88;1.77;;;16.10;99.90;;;;;;5005850;28;20041;-96
2023/07/13 04:33:33;;;;;;;7.25;2.63;;;16.10;99.90;;;;;;5003011;28;20120;-96
2023/07/13 04:36:01;;;;;;;6.70;2.33;;;16.10;99.90;;;;;;5011475;28;20037;-96
2023/07/13 04:38:30;;;;;;;3.63;1.42;;;16.20;99.90;;;;;;5009751;28;20033;-96
2023/07/13 04:41:00;;;;;;;7.38;2.00;;;16.30;99.90;;;;;;5017817;28;20100;-96
2023/07/13 04:43:26;;;;;;;5.22;1.75;;;16.30;99.90;;;;;;5022230;28;20040;-96
2023/07/13 04:45:53;;;;;;;5.45;2.38;;;16.40;99.90;;;;;;5013039;28;20056;-96
2023/07/13 04:48:20;;;;;;;5.85;1.98;;;16.60;99.90;;;;;;5018994;28;20103;-95
2023/07/13 04:50:46;;;;;;;5.70;1.60;;;16.50;99.90;;;;;;5030123;28;20658;-95
2023/07/13 04:53:12;;;;;;;6.85;1.90;;;16.60;99.90;;;;;;5034087;28;20037;-94
2023/07/13 04:55:38;;;;;;;7.32;2.20;;;16.70;99.90;;;;;;5027930;28;20052;-90
2023/07/13 04:58:04;;;;;;;4.60;1.92;;;16.80;99.90;;;;;;5023192;28;20041;-91
2023/07/13 05:00:30;;;;;;;6.70;2.25;;;16.90;99.90;;;;;;5038368;28;20045;-90
2023/07/13 05:02:58;;;;;;;5.63;1.60;;;17.00;99.90;;;;;;5032586;28;20041;-90
2023/07/13 05:05:25;;;;;;;6.88;2.17;;;17.20;99.90;;;;;;5022462;28;20044;-90
2023/07/13 05:07:52;;;;;;;5.57;1.60;;;17.30;99.90;;;;;;5001356;28;20047;-91
2023/07/13 05:10:18;;;;;;;7.68;1.70;;;17.40;99.90;;;;;;5000600;28;20053;-89
2023/07/13 05:12:44;;;;;;;4.95;2.00;;;17.50;99.90;;;;;;5010643;28;20040;-89
2023/07/13 05:15:10;;;;;;;5.93;1.63;;;17.70;99.90;;;;;;5010280;28;20120;-90
2023/07/13 05:17:36;;;;;;;5.22;1.80;;;17.80;99.90;;;;;;5030963;28;20048;-89
2023/07/13 05:20:02;;;;;;;3.25;1.48;;;17.90;99.90;;;;;;5005686;28;20102;-91
2023/07/13 05:22:28;;;;;;;5.45;1.58;;;18.00;99.90;;;;;;5007352;28;20029;-88
2023/07/13 05:24:53;;;;;;;5.05;1.80;;;18.00;99.90;;;;;;4989063;28;20041;-87
2023/07/13 05:27:19;;;;;;;4.15;1.67;;;18.10;99.90;;;;;;5009072;28;20032;-91
2023/07/13 05:29:45;;;;;;;4.93;1.58;;;18.20;99.90;;;;;;5004796;28;20487;-91
2023/07/13 05:32:11;;;;;;;5.85;1.80;;;18.10;99.90;;;;;;5002481;28;20443;-91
2023/07/13 05:34:36;;;;;;;6.72;1.90;;;18.20;99.90;;;;;;5005753;28;20127;-88
2023/07/13 05:37:05;;;;;;;6.90;1.83;;;18.30;99.90;;;;;;5002158;28;20563;-91
2023/07/13 05:39:31;;;;;;;7.53;1.60;;;18.50;99.90;;;;;;5020187;28;20079;-90
2023/07/13 05:41:57;;;;;;;5.50;1.30;;;19.10;99.90;;;;;;5031474;28;20525;-91
2023/07/13 05:44:23;;;;;;;3.38;1.30;;;19.90;99.90;;;;;;5027544;28;20040;-90
2023/07/13 05:46:48;;;;;;;6.43;1.50;;;20.60;99.90;;;;;;5030222;28;20045;-86
2023/07/13 05:49:14;;;;;;;3.92;1.63;;;21.60;99.90;;;;;;5021303;28;20482;-89
2023/07/13 05:51:40;;;;;;;4.32;1.58;;;22.20;99.90;;;;;;4998967;28;20040;-90
2023/07/13 05:54:05;;;;;;;5.10;1.60;;;22.70;99.90;;;;;;5003056;28;20119;-90
2023/07/13 05:56:31;;;;;;;5.30;1.25;;;23.10;99.90;;;;;;5026390;28;20045;-89
2023/07/13 05:58:57;;;;;;;4.20;1.30;;;23.60;99.90;;;;;;5002324;28;20110;-88
2023/07/13 06:01:23;;;;;;;4.97;1.48;;;24.40;99.90;;;;;;5000406;28;20049;-89
2023/07/13 06:03:49;;;;;;;5.85;1.45;;;25.00;99.90;;;;;;5014730;28;20056;-89
2023/07/13 06:06:15;;;;;;;5.23;1.10;;;25.50;99.90;;;;;;5020450;28;20036;-89
2023/07/13 06:08:41;;;;;;;3.50;1.33;;;26.00;99.90;;;;;;5008901;28;20470;-90
2023/07/13 06:11:15;;;;;;;4.50;1.47;;;26.50;99.90;;;;;;5000895;28;20051;-90
2023/07/13 06:13:40;;;;;;;4.93;1.13;;;26.90;99.90;;;;;;5024369;28;20045;-90
2023/07/13 06:16:06;;;;;;;3.77;0.93;;;27.30;99.90;;;;;;4995485;28;20091;-89
2023/07/13 06:18:33;;;;;;;3.67;1.30;;;27.40;99.90;;;;;;4994035;28;20037;-91
2023/07/13 06:20:59;;;;;;;3.50;1.25;;;27.80;99.90;;;;;;5010245;28;20037;-91
2023/07/13 06:23:25;;;;;;;3.73;1.03;;;28.00;99.90;;;;;;5030738;28;20086;-91
2023/07/13 06:25:51;;;;;;;3.83;1.27;;;28.10;99.90;;;;;;5019344;28;20036;-89
2023/07/13 06:28:17;;;;;;;3.65;1.00;;;28.20;99.90;;;;;;5022963;28;20423;-90
2023/07/13 06:30:43;;;;;;;3.53;1.33;;;28.10;99.90;;;;;;4994547;28;20052;-91
2023/07/13 06:33:08;;;;;;;4.07;1.23;;;27.30;99.90;;;;;;4990392;28;20041;-89
2023/07/13 06:35:34;;;;;;;3.03;1.17;;;27.20;99.90;;;;;;5012861;28;20387;-90
2023/07/13 06:38:18;;;;;;;4.57;1.17;;;27.40;99.90;;;;;;5027182;28;20033;-90
2023/07/13 06:40:53;;;;;;;2.60;1.15;;;27.70;99.90;;;;;;5022750;28;20077;-90
2023/07/13 06:43:20;;;;;;;4.28;1.10;;;28.30;99.90;;;;;;4995335;28;20033;-90
2023/07/13 06:45:49;;;;;;;3.75;1.00;;;28.40;99.90;;;;;;5017258;28;20164;-89
2023/07/13 06:48:17;;;;;;;3.95;1.05;;;28.40;99.90;;;;;;5026120;28;20025;-87
2023/07/13 06:51:11;;;;;;;5.60;1.20;;;28.20;99.90;;;;;;5011981;28;20447;-89
2023/07/13 06:54:15;;;;;;;;;;;;;;;;;;;;;
2023/07/13 06:56:47;;;;;;;1.67;0.90;;;27.40;99.90;;;;;;5032960;28;20061;-89
2023/07/13 06:59:13;;;;;;;3.17;0.98;;;28.10;99.90;;;;;;5028363;28;20087;-90
2023/07/13 07:01:39;;;;;;;2.33;0.73;;;28.00;99.90;;;;;;5015424;28;20041;-89
2023/07/13 07:04:05;;;;;;;3.65;1.00;;;28.20;99.90;;;;;;5002862;28;20068;-89
2023/07/13 07:06:38;;;;;;;2.40;0.60;;;28.20;99.40;;;;;;5024055;28;20547;-90
2023/07/13 07:09:52;;;;;;;;;;;;;;;;;;;;;
2023/07/13 07:12:57;;;;;;;1.50;0.75;;;27.30;94.30;;;;;;4977605;28;20077;-90
2023/07/13 07:18:51;;;;;;;3.10;0.82;;;27.30;97.20;;;;;;5034359;28;20052;-88
2023/07/13 07:21:22;;;;;;;2.00;0.70;;;27.00;94.60;;;;;;5030690;28;20045;-91
2023/07/13 07:23:59;;;;;;;2.60;0.70;;;26.80;99.60;;;;;;5036142;28;20038;-89
2023/07/13 07:26:38;;;;;;;3.88;0.80;;;26.50;99.10;;;;;;5039313;28;20025;-89
2023/07/13 07:29:10;;;;;;;2.80;0.90;;;26.20;99.90;;;;;;5021275;28;20037;-88
2023/07/13 07:31:44;;;;;;;2.05;0.70;;;25.50;99.90;;;;;;5003005;28;20048;-89
2023/07/13 07:34:10;;;;;;;2.00;0.68;;;25.60;99.90;;;;;;5016648;28;20069;-88
2023/07/13 07:36:47;;;;;;;3.15;0.65;;;25.40;99.90;;;;;;5011912;28;20546;-89
2023/07/13 07:39:16;;;;;;;1.73;0.50;;;24.80;99.90;;;;;;5021385;28;20112;-93
2023/07/13 07:50:26;;;;;;;2.33;0.60;;;26.90;92.50;;;;;;5048740;28;20035;-91
2023/07/13 08:03:46;;;;;;;2.80;0.77;;;26.40;90.80;;;;;;4930892;28;21391;-91
2023/07/13 08:06:12;;;;;;;2.77;0.97;;;25.40;96.60;;;;;;4908183;28;20047;-86
2023/07/13 08:08:37;;;;;;;1.80;0.70;;;24.70;99.80;;;;;;4974985;28;20038;-90
2023/07/13 08:11:08;;;;;;;3.90;0.90;;;24.00;99.90;;;;;;4995385;28;20483;-90
2023/07/13 08:13:34;;;;;;;2.95;0.60;;;23.30;99.90;;;;;;5003960;28;20067;-91
2023/07/13 08:16:00;;;;;;;3.25;0.80;;;22.80;99.90;;;;;;5001405;28;20056;-93
2023/07/13 08:18:28;;;;;;;3.67;1.05;;;22.40;99.90;;;;;;5020750;28;20039;-90
2023/07/13 08:20:56;;;;;;;3.15;0.75;;;22.10;99.90;;;;;;5003131;28;20037;-90
2023/07/13 08:23:23;;;;;;;2.35;0.70;;;21.70;99.90;;;;;;5006163;28;20542;-92
2023/07/13 08:25:53;;;;;;;1.00;0.52;;;21.60;99.90;;;;;;4998933;28;20037;-89
2023/07/13 08:28:20;;;;;;;1.42;0.85;;;21.30;99.90;;;;;;5010544;28;20564;-90
2023/07/13 08:30:49;;;;;;;1.23;0.50;;;21.30;99.90;;;;;;5021564;28;20376;-89
2023/07/13 08:33:20;;;;;;;2.75;0.60;;;21.00;99.90;;;;;;5019588;28;20123;-89
2023/07/13 08:35:47;;;;;;;0.93;0.40;;;21.20;99.90;;;;;;5016889;28;20044;-90
2023/07/13 08:38:13;;;;;;;1.10;0.50;;;21.20;99.90;;;;;;5012839;28;20044;-90
2023/07/13 08:40:39;;;;;;;2.93;0.63;;;21.20;99.90;;;;;;5027312;28;20033;-90
2023/07/13 08:43:13;;;;;;;3.03;0.70;;;21.10;99.90;;;;;;5032286;28;20480;-89
2023/07/13 08:45:49;;;;;;;3.10;0.80;;;20.90;99.90;;;;;;5035706;28;20044;-86
2023/07/13 08:48:25;;;;;;;3.50;0.80;;;20.90;99.90;;;;;;5030508;28;20101;-89
2023/07/13 08:51:15;;;;;;;2.38;0.80;;;20.80;99.90;;;;;;5017019;28;20120;-90
2023/07/13 08:53:47;;;;;;;2.28;0.90;;;20.80;99.90;;;;;;5010162;28;20084;-89
2023/07/13 08:56:22;;;;;;;3.47;1.10;;;20.80;99.90;;;;;;5005810;28;20068;-92
2023/07/13 08:59:11;;;;;;;1.88;0.82;;;20.90;99.90;;;;;;5008086;28;20043;-88
2023/07/13 09:02:13;;;;;;;2.58;0.85;;;21.30;99.90;;;;;;5005541;28;20081;-89
2023/07/13 09:04:49;;;;;;;1.85;0.80;;;22.00;99.90;;;;;;5001149;28;20058;-89
2023/07/13 09:07:50;;;;;;;2.38;0.88;;;22.90;99.90;;;;;;5032758;28;20029;-87
2023/07/13 09:10:16;;;;;;;3.70;0.80;;;23.30;99.90;;;;;;5007831;28;20396;-89
2023/07/13 09:13:14;;;;;;;2.65;0.70;;;22.90;99.90;;;;;;5013169;28;20094;-90
2023/07/13 09:15:45;;;;;;;2.90;0.95;;;22.30;99.90;;;;;;5021593;28;20076;-90
2023/07/13 09:18:14;;;;;;;2.05;0.93;;;21.90;99.90;;;;;;5007022;28;20041;-89
2023/07/13 09:20:54;;;;;;;2.72;0.88;;;21.70;99.90;;;;;;5037465;28;20066;-90
2023/07/13 09:23:22;;;;;;;3.20;0.80;;;21.40;99.90;;;;;;5024026;28;20037;-90
2023/07/13 09:25:58;;;;;;;3.80;0.70;;;21.30;99.90;;;;;;5026379;28;20041;-90
2023/07/13 09:28:27;;;;;;;2.28;0.88;;;21.10;99.90;;;;;;5051660;28;20043;-89
2023/07/13 09:31:04;;;;;;;3.92;1.13;;;21.00;99.90;;;;;;5023801;28;20048;-88
2023/07/13 09:33:31;;;;;;;1.33;0.73;;;21.00;99.90;;;;;;5022082;28;20116;-89
2023/07/13 09:35:58;;;;;;;;;;;21.20;99.90;;;;;;5004390;28;20077;-87
2023/07/13 09:38:28;;;;;;;2.85;1.00;;;21.70;99.90;;;;;;5031578;28;19927;-89
2023/07/13 09:41:16;;;;;;;3.65;0.80;;;22.10;99.90;;;;;;5020145;28;20056;-87
2023/07/13 09:44:01;;;;;;;3.10;0.60;;;22.60;99.90;;;;;;5013515;28;20064;-89
2023/07/13 09:46:27;;;;;;;2.65;0.77;;;22.80;99.90;;;;;;5027806;28;20124;-90
2023/07/13 09:48:55;;;;;;;2.35;0.90;;;22.90;99.90;;;;;;5008344;28;20448;-90
2023/07/13 09:51:21;;;;;;;3.22;0.85;;;22.90;99.90;;;;;;5016195;28;20041;-90
2023/07/13 09:53:48;;;;;;;3.65;0.77;;;22.80;99.90;;;;;;5014497;28;20090;-91
2023/07/13 09:56:21;;;;;;;;;;;22.70;99.90;;;;;;5039555;28;20044;-90
2023/07/13 09:58:47;;;;;;;2.30;0.75;;;22.40;99.90;;;;;;5054523;28;19916;-91
2023/07/13 10:01:14;;;;;;;1.95;0.75;;;22.20;99.90;;;;;;5022158;28;20028;-91
2023/07/13 10:03:51;;;;;;;1.75;0.70;;;22.00;99.90;;;;;;5021738;28;20044;-90
2023/07/13 10:06:19;;;;;;;2.20;0.73;;;21.80;99.90;;;;;;5027153;28;20049;-90
2023/07/13 10:08:49;;;;;;;1.45;0.50;;;21.70;99.90;;;;;;5039597;28;20130;-84
2023/07/13 10:11:25;;;;;;;0.93;0.50;;;21.40;99.90;;;;;;5029028;28;20064;-90
2023/07/13 10:13:56;;;;;;;2.42;0.57;;;21.20;99.90;;;;;;5046167;28;20937;-93
2023/07/13 10:16:35;;;;;;;1.15;0.60;;;21.00;99.90;;;;;;5015181;28;20045;-92
2023/07/13 10:19:12;;;;;;;1.05;0.45;;;20.90;99.90;;;;;;4998916;28;20045;-91
2023/07/13 10:21:55;;;;;;;0.70;0.35;;;20.80;99.90;;;;;;5017977;28;20131;-91
2023/07/13 10:24:23;;;;;;;1.63;0.70;;;20.80;99.90;;;;;;5025181;28;20037;-92
2023/07/13 10:26:58;;;;;;;1.98;0.60;;;21.00;99.90;;;;;;5006867;28;20049;-91
2023/07/13 10:29:27;;;;;;;1.42;0.40;;;21.30;99.90;;;;;;5031428;28;20047;-88
2023/07/13 10:31:52;;;;;;;0.80;0.43;;;21.50;99.90;;;;;;5006257;28;20065;-89
2023/07/13 10:34:18;;;;;;;2.00;0.43;;;21.70;99.90;;;;;;5000341;28;20040;-90
2023/07/13 10:36:47;;;;;;;2.63;0.85;;;21.80;99.90;;;;;;5014548;28;20044;-91
2023/07/13 10:39:26;;;;;;;1.20;0.35;;;22.00;99.90;;;;;;5020589;28;20037;-92
2023/07/13 10:41:57;;;;;;;2.47;0.60;;;22.30;99.90;;;;;;5023021;28;20131;-91
2023/07/13 10:44:29;;;;;;;1.77;0.68;;;22.50;99.90;;;;;;5032059;28;20178;-92
2023/07/13 10:47:01;;;;;;;1.65;0.50;;;22.80;99.90;;;;;;5024198;28;20635;-90
2023/07/13 10:49:29;;;;;;;1.20;0.35;;;23.00;99.90;;;;;;5030175;28;20033;-91
2023/07/13 10:51:55;;;;;;;3.88;0.57;;;23.10;99.90;;;;;;5011731;28;20045;-91
2023/07/13 10:54:32;;;;;;;1.70;0.50;;;23.00;99.90;;;;;;5000963;28;20052;-89
2023/07/13 10:57:16;;;;;;;0.90;0.30;;;22.80;99.90;;;;;;5019642;28;20128;-87
2023/07/13 10:59:45;;;;;;;1.40;0.40;;;22.60;99.90;;;;;;5036045;28;20045;-87
2023/07/13 11:02:28;;;;;;;1.30;0.30;;;22.60;99.90;;;;;;5012331;28;20091;-89
2023/07/13 11:04:57;;;;;;;0.73;0.30;;;22.70;99.90;;;;;;5003191;28;20049;-89
2023/07/13 11:07:31;;;;;;;2.03;0.38;;;22.80;99.90;;;;;;5025842;28;20065;-89
2023/07/13 11:10:05;;;;;;;1.10;0.40;;;22.90;99.90;;;;;;5004707;28;20043;-90
2023/07/13 11:12:51;;;;;;;1.77;0.50;;;22.90;99.90;;;;;;5016540;28;20099;-90
2023/07/13 11:15:33;;;;;;;1.63;0.30;;;22.70;99.90;;;;;;5014963;28;20048;-89
2023/07/13 11:18:03;;;;;;;2.03;0.50;;;22.50;99.90;;;;;;5034311;28;20045;-90
2023/07/13 11:20:40;;;;;;;1.35;0.40;;;22.50;99.90;;;;;;5043132;28;20612;-87
2023/07/13 11:23:27;;;;;;;1.85;0.40;;;22.50;99.90;;;;;;5009101;28;20037;-85
2023/07/13 11:25:53;;;;;;;1.65;0.65;;;22.70;99.90;;;;;;5012142;28;20124;-87
2023/07/13 11:28:24;;;;;;;1.48;0.40;;;22.50;99.90;;;;;;5028615;28;20455;-89
2023/07/13 11:31:02;;;;;;;1.67;0.40;;;22.20;99.90;;;;;;5011818;28;20045;-87
2023/07/13 11:33:30;;;;;;;0.80;0.40;;;22.30;99.90;;;;;;5007603;28;20507;-87
2023/07/13 11:36:04;;;;;;;1.38;0.68;;;22.50;99.90;;;;;;5016116;28;20053;-87
2023/07/13 11:38:35;;;;;;;1.65;0.43;;;22.60;99.90;;;;;;5018660;28;20033;-86
2023/07/13 11:41:05;;;;;;;3.00;0.57;;;22.70;99.90;;;;;;5004261;28;20075;-86
2023/07/13 11:43:33;;;;;;;1.10;0.50;;;22.80;99.90;;;;;;5013435;28;20059;-86
2023/07/13 11:46:12;;;;;;;2.60;0.60;;;22.70;99.90;;;;;;5014593;28;20029;-87
2023/07/13 11:48:39;;;;;;;1.27;0.60;;;22.60;99.90;;;;;;5018647;28;20044;-88
2023/07/13 11:51:05;;;;;;;;;;;22.30;99.90;;;;;;4989828;28;20032;-90
2023/07/13 11:53:44;;;;;;;3.75;0.50;;;21.90;99.90;;;;;;5010032;28;19917;-89
2023/07/13 11:56:10;;;;;;;1.75;0.55;;;21.70;99.90;;;;;;5015154;28;20059;-86
2023/07/13 11:58:36;;;;;;;1.92;0.68;;;21.50;99.90;;;;;;5000219;28;20036;-87
2023/07/13 12:01:04;;;;;;;2.13;0.68;;;21.70;99.90;;;;;;4985651;28;20079;-86
2023/07/13 12:03:33;;;;;;;2.80;0.70;;;21.70;99.90;;;;;;4991258;28;20094;-87
2023/07/13 12:06:07;;;;;;;1.75;0.50;;;21.60;99.90;;;;;;5011600;28;20135;-87
2023/07/13 12:08:41;;;;;;;2.05;0.60;;;21.50;99.90;;;;;;5011944;28;20033;-86
2023/07/13 12:11:16;;;;;;;2.05;0.43;;;21.50;99.90;;;;;;5028428;28;20040;-87
2023/07/13 12:13:45;;;;;;;1.92;0.47;;;21.70;99.90;;;;;;5018241;28;20044;-89
2023/07/13 12:16:33;;;;;;;0.98;0.50;;;21.70;99.90;;;;;;4987126;28;20147;-86
2023/07/13 12:19:01;;;;;;;1.35;0.45;;;21.70;99.90;;;;;;5007639;28;20033;-87
2023/07/13 12:21:33;;;;;;;2.53;0.68;;;21.70;99.90;;;;;;5027527;28;20044;-86
2023/07/13 12:24:01;;;;;;;2.10;0.60;;;21.50;99.90;;;;;;5010732;28;20025;-86
2023/07/13 12:26:30;;;;;;;1.77;0.60;;;21.30;99.90;;;;;;5043064;28;20018;-88
2023/07/13 12:28:58;;;;;;;1.20;0.40;;;21.30;99.90;;;;;;5035246;28;20060;-86
2023/07/13 12:31:36;;;;;;;1.20;0.40;;;21.30;99.90;;;;;;5044881;28;20044;-88
2023/07/13 12:34:12;;;;;;;1.90;0.57;;;21.30;99.90;;;;;;5030790;28;20025;-89
2023/07/13 12:36:46;;;;;;;2.15;0.60;;;21.30;99.90;;;;;;5021206;28;20066;-86
2023/07/13 12:39:18;;;;;;;2.63;0.60;;;21.20;99.90;;;;;;5007341;28;20052;-86
2023/07/13 12:41:45;;;;;;;1.75;0.50;;;21.10;99.90;;;;;;5003548;28;20128;-93
2023/07/13 12:44:31;;;;;;;2.47;0.80;;;21.00;99.90;;;;;;5011413;28;20278;-90
2023/07/13 12:47:04;;;;;;;2.95;0.98;;;20.80;99.90;;;;;;5010147;28;20076;-94
2023/07/13 12:49:34;;;;;;;1.75;0.70;;;20.60;99.90;;;;;;5022250;28;20041;-92
2023/07/13 12:52:02;;;;;;;1.67;0.55;;;20.40;99.90;;;;;;5012404;28;20040;-92
2023/07/13 12:54:30;;;;;;;1.58;0.40;;;20.30;99.90;;;;;;5009358;28;20046;-92
2023/07/13 12:56:58;;;;;;;;;;;20.30;99.90;;;;;;4998832;28;20497;-94
2023/07/13 12:59:29;;;;;;;1.42;0.50;;;20.40;99.90;;;;;;5018416;28;19939;-92
2023/07/13 13:01:55;;;;;;;0.57;0.30;;;20.20;99.90;;;;;;5026824;28;20045;-93
2023/07/13 13:04:21;;;;;;;0.63;0.40;;;20.20;99.90;;;;;;5025237;28;20068;-93
2023/07/13 13:06:48;;;;;;;2.20;0.60;;;20.30;99.90;;;;;;4999639;28;20128;-91
2023/07/13 13:09:16;;;;;;;2.67;0.82;;;20.40;99.90;;;;;;4994994;28;20608;-89
2023/07/13 13:11:46;;;;;;;1.52;0.70;;;20.50;99.90;;;;;;5022027;28;20503;-92
2023/07/13 13:14:12;;;;;;;2.08;0.90;;;20.80;99.90;;;;;;5012954;28;20471;-89
2023/07/13 13:16:49;;;;;;;1.77;0.43;;;20.80;99.90;;;;;;4993234;28;20039;-93
2023/07/13 13:19:19;;;;;;;1.42;0.40;;;20.90;99.90;;;;;;5027011;28;20056;-91
2023/07/13 13:21:46;;;;;;;1.90;0.60;;;20.90;99.90;;;;;;5012421;28;20041;-90
2023/07/13 13:24:19;;;;;;;1.83;0.50;;;20.90;99.90;;;;;;4999624;28;20128;-89
2023/07/13 13:26:46;;;;;;;1.67;0.60;;;21.00;99.90;;;;;;5034056;28;20055;-91